sensor_id;sensor_type;location;lat;lon;timestamp;temperature;humidity
54264;DHT22;40178;53.042;6.406;2022-09-24T00:01:19;12.40;99.90
54264;DHT22;40178;53.042;6.406;2022-09-24T00:03:50;12.40;99.90
54264;DHT22;40178;53.042;6.406;2022-09-24T00:06:16;12.40;99.90
54264;DHT22;40178;53.042;6.406;2022-09-24T00:08:46;12.50;99.90
54264;DHT22;40178;53.042;6.406;2022-09-24T00:11:13;12.40;99.90
54264;DHT22;40178;53.042;6.406;2022-09-24T00:13:40;12.40;99.90
54264;DHT22;40178;53.042;6.406;2022-09-24T00:16:09;12.40;99.90
54264;DHT22;40178;53.042;6.406;2022-09-24T00:18:37;12.40;99.90
54264;DHT22;40178;53.042;6.406;2022-09-24T00:21:21;12.40;99.90
54264;DHT22;40178;53.042;6.406;2022-09-24T00:23:50;12.40;99.90
54264;DHT22;40178;53.042;6.406;2022-09-24T00:26:16;12.50;99.90
54264;DHT22;40178;53.042;6.406;2022-09-24T00:29:01;12.70;99.90
54264;DHT22;40178;53.042;6.406;2022-09-24T00:31:27;12.50;99.90
54264;DHT22;40178;53.042;6.406;2022-09-24T00:33:52;12.40;99.90
54264;DHT22;40178;53.042;6.406;2022-09-24T00:36:20;12.70;99.90
54264;DHT22;40178;53.042;6.406;2022-09-24T00:38:51;12.60;99.90
54264;DHT22;40178;53.042;6.406;2022-09-24T00:41:21;12.80;99.90
54264;DHT22;40178;53.042;6.406;2022-09-24T00:43:48;12.80;99.90
54264;DHT22;40178;53.042;6.406;2022-09-24T00:48:46;12.60;99.90
54264;DHT22;40178;53.042;6.406;2022-09-24T00:51:16;12.60;99.90
54264;DHT22;40178;53.042;6.406;2022-09-24T00:53:45;12.50;99.90
54264;DHT22;40178;53.042;6.406;2022-09-24T00:56:12;12.60;99.90
54264;DHT22;40178;53.042;6.406;2022-09-24T00:58:43;12.50;99.90
54264;DHT22;40178;53.042;6.406;2022-09-24T01:01:14;12.70;99.90
54264;DHT22;40178;53.042;6.406;2022-09-24T01:03:43;12.70;99.90
54264;DHT22;40178;53.042;6.406;2022-09-24T01:06:10;12.70;99.90
54264;DHT22;40178;53.042;6.406;2022-09-24T01:08:38;12.60;99.90
54264;DHT22;40178;53.042;6.406;2022-09-24T01:16:27;12.60;99.90
54264;DHT22;40178;53.042;6.406;2022-09-24T01:21:53;12.60;99.90
54264;DHT22;40178;53.042;6.406;2022-09-24T01:30:18;12.70;99.90
54264;DHT22;40178;53.042;6.406;2022-09-24T01:32:51;12.80;99.90
54264;DHT22;40178;53.042;6.406;2022-09-24T01:35:26;12.70;99.90
54264;DHT22;40178;53.042;6.406;2022-09-24T01:38:17;12.60;99.90
54264;DHT22;40178;53.042;6.406;2022-09-24T01:40:41;12.60;99.90
54264;DHT22;40178;53.042;6.406;2022-09-24T01:43:09;12.80;99.90
54264;DHT22;40178;53.042;6.406;2022-09-24T01:45:37;12.80;99.90
54264;DHT22;40178;53.042;6.406;2022-09-24T01:48:04;12.70;99.90
54264;DHT22;40178;53.042;6.406;2022-09-24T01:50:37;12.70;99.90
54264;DHT22;40178;53.042;6.406;2022-09-24T01:53:15;12.80;99.90
54264;DHT22;40178;53.042;6.406;2022-09-24T01:55:46;12.80;99.90
54264;DHT22;40178;53.042;6.406;2022-09-24T01:58:19;12.70;99.90
54264;DHT22;40178;53.042;6.406;2022-09-24T02:00:48;12.70;99.90
54264;DHT22;40178;53.042;6.406;2022-09-24T02:03:27;12.80;99.90
54264;DHT22;40178;53.042;6.406;2022-09-24T02:06:07;12.70;99.90
54264;DHT22;40178;53.042;6.406;2022-09-24T02:08:40;12.70;99.90
54264;DHT22;40178;53.042;6.406;2022-09-24T02:11:11;12.80;99.90
54264;DHT22;40178;53.042;6.406;2022-09-24T02:14:03;12.80;99.90
54264;DHT22;40178;53.042;6.406;2022-09-24T02:16:43;12.70;99.90
54264;DHT22;40178;53.042;6.406;2022-09-24T02:19:13;12.70;99.90
54264;DHT22;40178;53.042;6.406;2022-09-24T02:21:40;12.70;99.90
54264;DHT22;40178;53.042;6.406;2022-09-24T02:24:13;12.70;99.90
54264;DHT22;40178;53.042;6.406;2022-09-24T02:26:39;12.80;99.90
54264;DHT22;40178;53.042;6.406;2022-09-24T02:29:05;12.80;99.90
54264;DHT22;40178;53.042;6.406;2022-09-24T02:31:34;12.80;99.90
54264;DHT22;40178;53.042;6.406;2022-09-24T02:34:05;12.70;99.90
54264;DHT22;40178;53.042;6.406;2022-09-24T02:36:58;12.80;99.90
54264;DHT22;40178;53.042;6.406;2022-09-24T02:39:26;12.80;99.90
54264;DHT22;40178;53.042;6.406;2022-09-24T02:41:53;12.70;99.90
54264;DHT22;40178;53.042;6.406;2022-09-24T02:44:19;12.80;99.90
54264;DHT22;40178;53.042;6.406;2022-09-24T02:46:45;13.00;99.90
54264;DHT22;40178;53.042;6.406;2022-09-24T02:49:12;12.70;99.90
54264;DHT22;40178;53.042;6.406;2022-09-24T02:51:39;12.80;99.90
54264;DHT22;40178;53.042;6.406;2022-09-24T02:54:05;13.00;99.90
54264;DHT22;40178;53.042;6.406;2022-09-24T02:56:31;12.90;99.90
54264;DHT22;40178;53.042;6.406;2022-09-24T02:58:57;12.90;99.90
54264;DHT22;40178;53.042;6.406;2022-09-24T03:01:23;12.80;99.90
54264;DHT22;40178;53.042;6.406;2022-09-24T03:03:50;12.70;99.90
54264;DHT22;40178;53.042;6.406;2022-09-24T03:06:16;12.80;99.90
54264;DHT22;40178;53.042;6.406;2022-09-24T03:08:42;12.30;99.90
54264;DHT22;40178;53.042;6.406;2022-09-24T03:11:15;13.00;99.90
54264;DHT22;40178;53.042;6.406;2022-09-24T03:13:41;12.80;99.90
54264;DHT22;40178;53.042;6.406;2022-09-24T03:16:06;12.80;99.90
54264;DHT22;40178;53.042;6.406;2022-09-24T03:18:33;12.70;99.90
54264;DHT22;40178;53.042;6.406;2022-09-24T03:21:06;12.70;99.90
54264;DHT22;40178;53.042;6.406;2022-09-24T03:23:33;12.60;99.90
54264;DHT22;40178;53.042;6.406;2022-09-24T03:25:59;12.90;99.90
54264;DHT22;40178;53.042;6.406;2022-09-24T03:28:25;12.60;99.90
54264;DHT22;40178;53.042;6.406;2022-09-24T03:30:51;12.80;99.90
54264;DHT22;40178;53.042;6.406;2022-09-24T03:33:27;12.70;99.90
54264;DHT22;40178;53.042;6.406;2022-09-24T03:35:58;12.70;99.90
54264;DHT22;40178;53.042;6.406;2022-09-24T03:38:24;12.70;99.90
54264;DHT22;40178;53.042;6.406;2022-09-24T03:40:50;12.90;99.90
54264;DHT22;40178;53.042;6.406;2022-09-24T03:43:15;12.60;99.90
54264;DHT22;40178;53.042;6.406;2022-09-24T03:45:41;12.80;99.90
54264;DHT22;40178;53.042;6.406;2022-09-24T03:48:06;12.80;99.90
54264;DHT22;40178;53.042;6.406;2022-09-24T03:50:35;12.70;99.90
54264;DHT22;40178;53.042;6.406;2022-09-24T03:53:04;12.70;99.90
54264;DHT22;40178;53.042;6.406;2022-09-24T03:55:30;13.00;99.90
54264;DHT22;40178;53.042;6.406;2022-09-24T03:57:58;12.70;99.90
54264;DHT22;40178;53.042;6.406;2022-09-24T04:00:23;12.80;99.90
54264;DHT22;40178;53.042;6.406;2022-09-24T04:02:49;12.80;99.90
54264;DHT22;40178;53.042;6.406;2022-09-24T04:05:15;12.70;99.90
54264;DHT22;40178;53.042;6.406;2022-09-24T04:07:44;12.70;99.90
54264;DHT22;40178;53.042;6.406;2022-09-24T04:10:10;12.80;99.90
54264;DHT22;40178;53.042;6.406;2022-09-24T04:12:36;12.80;99.90
54264;DHT22;40178;53.042;6.406;2022-09-24T04:15:02;12.80;99.90
54264;DHT22;40178;53.042;6.406;2022-09-24T04:17:28;12.90;99.90
54264;DHT22;40178;53.042;6.406;2022-09-24T04:19:56;12.90;99.90
54264;DHT22;40178;53.042;6.406;2022-09-24T04:22:22;12.70;99.90
54264;DHT22;40178;53.042;6.406;2022-09-24T04:24:47;12.70;99.90
54264;DHT22;40178;53.042;6.406;2022-09-24T04:27:13;12.80;99.90
54264;DHT22;40178;53.042;6.406;2022-09-24T04:29:39;12.80;99.90
54264;DHT22;40178;53.042;6.406;2022-09-24T04:32:04;12.70;99.90
54264;DHT22;40178;53.042;6.406;2022-09-24T04:34:30;12.70;99.90
54264;DHT22;40178;53.042;6.406;2022-09-24T04:36:55;12.80;99.90
54264;DHT22;40178;53.042;6.406;2022-09-24T04:39:21;12.80;99.90
54264;DHT22;40178;53.042;6.406;2022-09-24T04:41:51;12.80;99.90
54264;DHT22;40178;53.042;6.406;2022-09-24T04:44:16;12.70;99.90
54264;DHT22;40178;53.042;6.406;2022-09-24T04:46:42;12.70;99.90
54264;DHT22;40178;53.042;6.406;2022-09-24T04:49:08;12.70;99.90
54264;DHT22;40178;53.042;6.406;2022-09-24T04:51:34;12.70;99.90
54264;DHT22;40178;53.042;6.406;2022-09-24T04:54:00;12.90;99.90
54264;DHT22;40178;53.042;6.406;2022-09-24T04:56:29;12.80;99.90
54264;DHT22;40178;53.042;6.406;2022-09-24T04:58:56;12.70;99.90
54264;DHT22;40178;53.042;6.406;2022-09-24T05:01:22;12.70;99.90
54264;DHT22;40178;53.042;6.406;2022-09-24T05:03:48;12.70;99.90
54264;DHT22;40178;53.042;6.406;2022-09-24T05:06:14;12.80;99.90
54264;DHT22;40178;53.042;6.406;2022-09-24T05:08:40;12.80;99.90
54264;DHT22;40178;53.042;6.406;2022-09-24T05:11:06;12.80;99.90
54264;DHT22;40178;53.042;6.406;2022-09-24T05:13:32;12.80;99.90
54264;DHT22;40178;53.042;6.406;2022-09-24T05:15:57;12.90;99.90
54264;DHT22;40178;53.042;6.406;2022-09-24T05:18:25;12.80;99.90
54264;DHT22;40178;53.042;6.406;2022-09-24T05:20:51;13.10;99.90
54264;DHT22;40178;53.042;6.406;2022-09-24T05:23:17;12.90;99.90
54264;DHT22;40178;53.042;6.406;2022-09-24T05:25:43;12.80;99.90
54264;DHT22;40178;53.042;6.406;2022-09-24T05:28:27;12.80;99.90
54264;DHT22;40178;53.042;6.406;2022-09-24T05:30:56;12.90;99.90
54264;DHT22;40178;53.042;6.406;2022-09-24T05:33:21;12.80;99.90
54264;DHT22;40178;53.042;6.406;2022-09-24T05:35:52;12.80;99.90
54264;DHT22;40178;53.042;6.406;2022-09-24T05:38:18;12.80;99.90
54264;DHT22;40178;53.042;6.406;2022-09-24T05:40:44;12.80;99.90
54264;DHT22;40178;53.042;6.406;2022-09-24T05:43:13;12.80;99.90
54264;DHT22;40178;53.042;6.406;2022-09-24T05:45:38;12.80;99.90
54264;DHT22;40178;53.042;6.406;2022-09-24T05:48:04;13.00;99.90
54264;DHT22;40178;53.042;6.406;2022-09-24T05:50:30;13.00;99.90
54264;DHT22;40178;53.042;6.406;2022-09-24T05:53:03;12.90;99.90
54264;DHT22;40178;53.042;6.406;2022-09-24T05:55:29;13.00;99.90
54264;DHT22;40178;53.042;6.406;2022-09-24T05:57:54;13.00;99.90
54264;DHT22;40178;53.042;6.406;2022-09-24T06:00:20;12.90;99.90
54264;DHT22;40178;53.042;6.406;2022-09-24T06:02:46;12.80;99.90
54264;DHT22;40178;53.042;6.406;2022-09-24T06:05:11;12.80;99.90
54264;DHT22;40178;53.042;6.406;2022-09-24T06:07:38;12.90;99.90
54264;DHT22;40178;53.042;6.406;2022-09-24T06:10:04;12.90;99.90
54264;DHT22;40178;53.042;6.406;2022-09-24T06:12:32;12.80;99.90
54264;DHT22;40178;53.042;6.406;2022-09-24T06:15:02;12.90;99.90
54264;DHT22;40178;53.042;6.406;2022-09-24T06:17:28;12.80;99.90
54264;DHT22;40178;53.042;6.406;2022-09-24T06:19:53;12.80;99.90
54264;DHT22;40178;53.042;6.406;2022-09-24T06:22:20;12.80;99.90
54264;DHT22;40178;53.042;6.406;2022-09-24T06:24:45;12.80;99.90
54264;DHT22;40178;53.042;6.406;2022-09-24T06:27:11;12.90;99.90
54264;DHT22;40178;53.042;6.406;2022-09-24T06:29:37;13.00;99.90
54264;DHT22;40178;53.042;6.406;2022-09-24T06:32:03;12.90;99.90
54264;DHT22;40178;53.042;6.406;2022-09-24T06:34:29;12.90;99.90
54264;DHT22;40178;53.042;6.406;2022-09-24T06:36:55;12.90;99.90
54264;DHT22;40178;53.042;6.406;2022-09-24T06:39:24;13.00;99.90
54264;DHT22;40178;53.042;6.406;2022-09-24T06:41:51;13.20;99.90
54264;DHT22;40178;53.042;6.406;2022-09-24T06:44:18;13.10;99.90
54264;DHT22;40178;53.042;6.406;2022-09-24T06:46:44;13.00;99.90
54264;DHT22;40178;53.042;6.406;2022-09-24T06:49:10;13.10;99.90
54264;DHT22;40178;53.042;6.406;2022-09-24T06:51:38;13.10;99.90
54264;DHT22;40178;53.042;6.406;2022-09-24T06:54:04;13.20;99.90
54264;DHT22;40178;53.042;6.406;2022-09-24T06:56:29;13.30;99.90
54264;DHT22;40178;53.042;6.406;2022-09-24T06:58:55;13.30;99.90
54264;DHT22;40178;53.042;6.406;2022-09-24T07:01:21;13.30;99.90
54264;DHT22;40178;53.042;6.406;2022-09-24T07:03:47;13.40;99.90
54264;DHT22;40178;53.042;6.406;2022-09-24T07:06:12;13.50;99.90
54264;DHT22;40178;53.042;6.406;2022-09-24T07:08:38;13.50;99.90
54264;DHT22;40178;53.042;6.406;2022-09-24T07:11:04;13.60;99.90
54264;DHT22;40178;53.042;6.406;2022-09-24T07:13:30;13.50;99.90
54264;DHT22;40178;53.042;6.406;2022-09-24T07:15:55;13.60;99.90
54264;DHT22;40178;53.042;6.406;2022-09-24T07:18:21;13.60;99.90
54264;DHT22;40178;53.042;6.406;2022-09-24T07:20:54;13.80;99.90
54264;DHT22;40178;53.042;6.406;2022-09-24T07:23:20;13.60;99.90
54264;DHT22;40178;53.042;6.406;2022-09-24T07:25:46;13.60;99.90
54264;DHT22;40178;53.042;6.406;2022-09-24T07:28:13;13.70;99.90
54264;DHT22;40178;53.042;6.406;2022-09-24T07:30:40;13.50;99.90
54264;DHT22;40178;53.042;6.406;2022-09-24T07:33:06;13.60;99.90
54264;DHT22;40178;53.042;6.406;2022-09-24T07:35:32;13.70;99.90
54264;DHT22;40178;53.042;6.406;2022-09-24T07:38:03;14.00;99.90
54264;DHT22;40178;53.042;6.406;2022-09-24T07:40:29;13.60;99.90
54264;DHT22;40178;53.042;6.406;2022-09-24T07:42:56;13.80;99.90
54264;DHT22;40178;53.042;6.406;2022-09-24T07:45:23;13.90;99.90
54264;DHT22;40178;53.042;6.406;2022-09-24T07:48:03;13.90;99.90
54264;DHT22;40178;53.042;6.406;2022-09-24T07:50:31;13.90;99.90
54264;DHT22;40178;53.042;6.406;2022-09-24T07:52:57;14.20;99.90
54264;DHT22;40178;53.042;6.406;2022-09-24T07:55:23;13.90;99.90
54264;DHT22;40178;53.042;6.406;2022-09-24T07:57:52;14.00;99.90
54264;DHT22;40178;53.042;6.406;2022-09-24T08:00:19;14.10;99.90
54264;DHT22;40178;53.042;6.406;2022-09-24T08:02:45;14.10;99.90
54264;DHT22;40178;53.042;6.406;2022-09-24T08:05:13;14.10;99.90
54264;DHT22;40178;53.042;6.406;2022-09-24T08:07:49;14.10;99.90
54264;DHT22;40178;53.042;6.406;2022-09-24T08:10:15;14.20;99.90
54264;DHT22;40178;53.042;6.406;2022-09-24T08:12:41;14.10;99.90
54264;DHT22;40178;53.042;6.406;2022-09-24T08:15:07;14.30;99.90
54264;DHT22;40178;53.042;6.406;2022-09-24T08:17:32;14.40;99.90
54264;DHT22;40178;53.042;6.406;2022-09-24T08:19:58;14.40;99.90
54264;DHT22;40178;53.042;6.406;2022-09-24T08:22:24;14.40;99.90
54264;DHT22;40178;53.042;6.406;2022-09-24T08:24:51;14.30;99.90
54264;DHT22;40178;53.042;6.406;2022-09-24T08:27:17;14.20;99.90
54264;DHT22;40178;53.042;6.406;2022-09-24T08:29:45;14.00;99.90
54264;DHT22;40178;53.042;6.406;2022-09-24T08:32:10;14.10;99.90
54264;DHT22;40178;53.042;6.406;2022-09-24T08:34:37;14.00;99.90
54264;DHT22;40178;53.042;6.406;2022-09-24T08:37:05;14.00;99.90
54264;DHT22;40178;53.042;6.406;2022-09-24T08:39:31;13.90;99.90
54264;DHT22;40178;53.042;6.406;2022-09-24T08:42:17;13.80;99.90
54264;DHT22;40178;53.042;6.406;2022-09-24T08:44:46;13.90;99.90
54264;DHT22;40178;53.042;6.406;2022-09-24T08:47:42;13.90;99.90
54264;DHT22;40178;53.042;6.406;2022-09-24T08:53:11;14.00;99.90
54264;DHT22;40178;53.042;6.406;2022-09-24T08:55:47;14.10;99.90
54264;DHT22;40178;53.042;6.406;2022-09-24T09:06:42;14.20;99.90
54264;DHT22;40178;53.042;6.406;2022-09-24T09:09:22;14.30;99.90
54264;DHT22;40178;53.042;6.406;2022-09-24T09:12:04;14.40;99.90
54264;DHT22;40178;53.042;6.406;2022-09-24T09:15:03;14.40;99.90
54264;DHT22;40178;53.042;6.406;2022-09-24T09:17:33;14.30;99.90
54264;DHT22;40178;53.042;6.406;2022-09-24T09:20:04;14.30;99.90
54264;DHT22;40178;53.042;6.406;2022-09-24T09:22:38;14.40;99.90
54264;DHT22;40178;53.042;6.406;2022-09-24T09:25:21;14.30;99.90
54264;DHT22;40178;53.042;6.406;2022-09-24T09:30:49;14.30;99.90
54264;DHT22;40178;53.042;6.406;2022-09-24T09:39:33;14.40;99.90
54264;DHT22;40178;53.042;6.406;2022-09-24T09:42:17;14.40;99.90
54264;DHT22;40178;53.042;6.406;2022-09-24T09:44:48;14.50;99.90
54264;DHT22;40178;53.042;6.406;2022-09-24T09:47:40;14.50;99.90
54264;DHT22;40178;53.042;6.406;2022-09-24T09:50:33;14.60;99.90
54264;DHT22;40178;53.042;6.406;2022-09-24T09:53:02;14.70;99.90
54264;DHT22;40178;53.042;6.406;2022-09-24T09:55:34;14.70;99.90
54264;DHT22;40178;53.042;6.406;2022-09-24T09:58:18;14.70;99.90
54264;DHT22;40178;53.042;6.406;2022-09-24T10:00:46;14.70;99.90
54264;DHT22;40178;53.042;6.406;2022-09-24T10:03:45;14.70;99.90
54264;DHT22;40178;53.042;6.406;2022-09-24T10:06:23;14.60;99.90
54264;DHT22;40178;53.042;6.406;2022-09-24T10:08:49;14.60;99.90
54264;DHT22;40178;53.042;6.406;2022-09-24T10:11:16;14.60;99.90
54264;DHT22;40178;53.042;6.406;2022-09-24T10:13:41;14.60;99.90
54264;DHT22;40178;53.042;6.406;2022-09-24T10:16:12;14.60;99.90
54264;DHT22;40178;53.042;6.406;2022-09-24T10:18:45;14.60;99.90
54264;DHT22;40178;53.042;6.406;2022-09-24T10:21:23;14.50;99.90
54264;DHT22;40178;53.042;6.406;2022-09-24T10:27:36;14.50;99.90
54264;DHT22;40178;53.042;6.406;2022-09-24T10:30:11;14.50;99.90
54264;DHT22;40178;53.042;6.406;2022-09-24T10:33:22;14.40;99.90
54264;DHT22;40178;53.042;6.406;2022-09-24T10:36:28;14.40;99.90
54264;DHT22;40178;53.042;6.406;2022-09-24T10:39:14;14.30;99.90
54264;DHT22;40178;53.042;6.406;2022-09-24T10:41:53;14.30;99.90
54264;DHT22;40178;53.042;6.406;2022-09-24T10:44:21;14.20;99.90
54264;DHT22;40178;53.042;6.406;2022-09-24T10:52:45;14.40;99.90
54264;DHT22;40178;53.042;6.406;2022-09-24T10:55:32;14.40;99.90
54264;DHT22;40178;53.042;6.406;2022-09-24T11:07:24;14.80;99.90
54264;DHT22;40178;53.042;6.406;2022-09-24T11:13:34;14.70;99.90
54264;DHT22;40178;53.042;6.406;2022-09-24T11:32:05;14.30;99.90
54264;DHT22;40178;53.042;6.406;2022-09-24T11:37:45;14.30;99.90
54264;DHT22;40178;53.042;6.406;2022-09-24T11:45:43;14.30;99.90
54264;DHT22;40178;53.042;6.406;2022-09-24T11:51:38;14.40;99.90
54264;DHT22;40178;53.042;6.406;2022-09-24T11:57:01;14.60;99.90
54264;DHT22;40178;53.042;6.406;2022-09-24T11:59:56;14.90;99.90
54264;DHT22;40178;53.042;6.406;2022-09-24T12:02:28;14.90;99.90
54264;DHT22;40178;53.042;6.406;2022-09-24T12:05:02;15.00;99.90
54264;DHT22;40178;53.042;6.406;2022-09-24T12:07:46;15.00;99.90
54264;DHT22;40178;53.042;6.406;2022-09-24T12:10:38;14.90;99.90
54264;DHT22;40178;53.042;6.406;2022-09-24T12:16:15;14.80;99.90
54264;DHT22;40178;53.042;6.406;2022-09-24T12:18:48;14.90;99.90
54264;DHT22;40178;53.042;6.406;2022-09-24T12:21:31;14.90;99.90
54264;DHT22;40178;53.042;6.406;2022-09-24T12:24:05;15.00;99.90
54264;DHT22;40178;53.042;6.406;2022-09-24T12:26:35;14.90;99.90
54264;DHT22;40178;53.042;6.406;2022-09-24T12:29:16;14.90;99.90
54264;DHT22;40178;53.042;6.406;2022-09-24T12:35:22;14.90;99.90
54264;DHT22;40178;53.042;6.406;2022-09-24T12:38:27;15.00;99.90
54264;DHT22;40178;53.042;6.406;2022-09-24T12:43:33;15.00;99.90
54264;DHT22;40178;53.042;6.406;2022-09-24T12:46:04;15.10;99.90
54264;DHT22;40178;53.042;6.406;2022-09-24T12:48:33;15.10;99.90
54264;DHT22;40178;53.042;6.406;2022-09-24T12:51:02;15.10;99.90
54264;DHT22;40178;53.042;6.406;2022-09-24T12:53:33;15.20;99.90
54264;DHT22;40178;53.042;6.406;2022-09-24T12:56:00;15.20;99.90
54264;DHT22;40178;53.042;6.406;2022-09-24T12:58:39;15.10;99.90
54264;DHT22;40178;53.042;6.406;2022-09-24T13:04:24;15.00;99.90
54264;DHT22;40178;53.042;6.406;2022-09-24T13:06:46;14.90;99.90
54264;DHT22;40178;53.042;6.406;2022-09-24T13:09:31;14.80;99.90
54264;DHT22;40178;53.042;6.406;2022-09-24T13:15:03;14.70;99.90
54264;DHT22;40178;53.042;6.406;2022-09-24T13:17:32;14.70;99.90
54264;DHT22;40178;53.042;6.406;2022-09-24T13:20:02;14.60;99.90
54264;DHT22;40178;53.042;6.406;2022-09-24T13:22:32;14.60;99.90
54264;DHT22;40178;53.042;6.406;2022-09-24T13:27:35;14.70;99.90
54264;DHT22;40178;53.042;6.406;2022-09-24T13:32:41;14.80;99.90
54264;DHT22;40178;53.042;6.406;2022-09-24T13:35:14;14.90;99.90
54264;DHT22;40178;53.042;6.406;2022-09-24T13:37:42;14.80;99.90
54264;DHT22;40178;53.042;6.406;2022-09-24T13:40:18;14.70;99.90
54264;DHT22;40178;53.042;6.406;2022-09-24T13:42:55;14.60;99.90
54264;DHT22;40178;53.042;6.406;2022-09-24T13:45:23;14.50;99.90
54264;DHT22;40178;53.042;6.406;2022-09-24T13:47:53;14.40;99.90
54264;DHT22;40178;53.042;6.406;2022-09-24T13:50:32;14.30;99.90
54264;DHT22;40178;53.042;6.406;2022-09-24T13:53:29;14.40;99.90
54264;DHT22;40178;53.042;6.406;2022-09-24T13:55:54;14.40;99.90
54264;DHT22;40178;53.042;6.406;2022-09-24T13:58:32;14.40;99.90
54264;DHT22;40178;53.042;6.406;2022-09-24T14:01:00;14.40;99.90
54264;DHT22;40178;53.042;6.406;2022-09-24T14:03:34;14.40;99.90
54264;DHT22;40178;53.042;6.406;2022-09-24T14:06:08;14.40;99.90
54264;DHT22;40178;53.042;6.406;2022-09-24T14:08:34;14.40;99.90
54264;DHT22;40178;53.042;6.406;2022-09-24T14:11:04;14.30;99.90
54264;DHT22;40178;53.042;6.406;2022-09-24T14:13:34;14.30;99.90
54264;DHT22;40178;53.042;6.406;2022-09-24T14:16:16;14.30;99.90
54264;DHT22;40178;53.042;6.406;2022-09-24T14:18:43;14.30;99.90
54264;DHT22;40178;53.042;6.406;2022-09-24T14:26:29;14.00;99.90
54264;DHT22;40178;53.042;6.406;2022-09-24T14:28:58;14.00;99.90
54264;DHT22;40178;53.042;6.406;2022-09-24T14:31:24;13.90;99.90
54264;DHT22;40178;53.042;6.406;2022-09-24T14:33:50;13.80;99.90
54264;DHT22;40178;53.042;6.406;2022-09-24T14:36:16;13.80;99.90
54264;DHT22;40178;53.042;6.406;2022-09-24T14:38:52;13.70;99.90
54264;DHT22;40178;53.042;6.406;2022-09-24T14:41:27;13.70;99.90
54264;DHT22;40178;53.042;6.406;2022-09-24T14:44:05;13.70;99.90
54264;DHT22;40178;53.042;6.406;2022-09-24T14:46:38;13.60;99.90
54264;DHT22;40178;53.042;6.406;2022-09-24T14:49:22;13.60;99.90
54264;DHT22;40178;53.042;6.406;2022-09-24T14:52:01;13.60;99.90
54264;DHT22;40178;53.042;6.406;2022-09-24T14:54:38;13.70;99.90
54264;DHT22;40178;53.042;6.406;2022-09-24T14:59:43;13.60;99.90
54264;DHT22;40178;53.042;6.406;2022-09-24T15:02:28;13.60;99.90
54264;DHT22;40178;53.042;6.406;2022-09-24T15:04:56;13.60;99.90
54264;DHT22;40178;53.042;6.406;2022-09-24T15:07:24;13.60;99.90
54264;DHT22;40178;53.042;6.406;2022-09-24T15:09:52;13.50;99.90
54264;DHT22;40178;53.042;6.406;2022-09-24T15:12:33;13.40;99.90
54264;DHT22;40178;53.042;6.406;2022-09-24T15:17:42;13.20;99.90
54264;DHT22;40178;53.042;6.406;2022-09-24T15:20:09;13.20;99.90
54264;DHT22;40178;53.042;6.406;2022-09-24T15:22:35;13.20;99.90
54264;DHT22;40178;53.042;6.406;2022-09-24T15:25:01;13.10;99.90
54264;DHT22;40178;53.042;6.406;2022-09-24T15:27:30;13.20;99.90
54264;DHT22;40178;53.042;6.406;2022-09-24T15:29:57;13.20;99.90
54264;DHT22;40178;53.042;6.406;2022-09-24T15:32:25;13.20;99.90
54264;DHT22;40178;53.042;6.406;2022-09-24T15:34:52;13.20;99.90
54264;DHT22;40178;53.042;6.406;2022-09-24T15:37:25;13.20;99.90
54264;DHT22;40178;53.042;6.406;2022-09-24T15:39:57;13.30;99.90
54264;DHT22;40178;53.042;6.406;2022-09-24T15:42:25;13.30;99.90
54264;DHT22;40178;53.042;6.406;2022-09-24T15:44:51;13.30;99.90
54264;DHT22;40178;53.042;6.406;2022-09-24T15:47:18;13.20;99.90
54264;DHT22;40178;53.042;6.406;2022-09-24T15:49:44;13.30;99.90
54264;DHT22;40178;53.042;6.406;2022-09-24T15:52:28;13.20;99.90
54264;DHT22;40178;53.042;6.406;2022-09-24T15:54:57;13.20;99.90
54264;DHT22;40178;53.042;6.406;2022-09-24T15:57:24;13.40;99.90
54264;DHT22;40178;53.042;6.406;2022-09-24T15:59:51;13.30;99.90
54264;DHT22;40178;53.042;6.406;2022-09-24T16:02:24;13.30;99.90
54264;DHT22;40178;53.042;6.406;2022-09-24T16:04:50;13.30;99.90
54264;DHT22;40178;53.042;6.406;2022-09-24T16:07:16;13.30;99.90
54264;DHT22;40178;53.042;6.406;2022-09-24T16:09:42;13.30;99.90
54264;DHT22;40178;53.042;6.406;2022-09-24T16:12:13;13.40;99.90
54264;DHT22;40178;53.042;6.406;2022-09-24T16:14:39;13.20;99.90
54264;DHT22;40178;53.042;6.406;2022-09-24T16:17:05;13.30;99.90
54264;DHT22;40178;53.042;6.406;2022-09-24T16:19:30;13.30;99.90
54264;DHT22;40178;53.042;6.406;2022-09-24T16:21:56;13.30;99.90
54264;DHT22;40178;53.042;6.406;2022-09-24T16:24:24;13.30;99.90
54264;DHT22;40178;53.042;6.406;2022-09-24T16:26:49;13.20;99.90
54264;DHT22;40178;53.042;6.406;2022-09-24T16:29:16;13.20;99.90
54264;DHT22;40178;53.042;6.406;2022-09-24T16:31:43;13.30;99.90
54264;DHT22;40178;53.042;6.406;2022-09-24T16:34:11;13.30;99.90
54264;DHT22;40178;53.042;6.406;2022-09-24T16:36:36;13.20;99.90
54264;DHT22;40178;53.042;6.406;2022-09-24T16:39:04;13.20;99.90
54264;DHT22;40178;53.042;6.406;2022-09-24T16:41:35;13.40;99.90
54264;DHT22;40178;53.042;6.406;2022-09-24T16:44:33;13.20;99.90
54264;DHT22;40178;53.042;6.406;2022-09-24T16:47:04;13.60;99.90
54264;DHT22;40178;53.042;6.406;2022-09-24T16:49:40;13.50;99.90
54264;DHT22;40178;53.042;6.406;2022-09-24T16:52:06;13.40;99.90
54264;DHT22;40178;53.042;6.406;2022-09-24T16:54:31;13.50;99.90
54264;DHT22;40178;53.042;6.406;2022-09-24T16:56:57;13.50;99.90
54264;DHT22;40178;53.042;6.406;2022-09-24T16:59:23;13.50;99.90
54264;DHT22;40178;53.042;6.406;2022-09-24T17:01:49;13.60;99.90
54264;DHT22;40178;53.042;6.406;2022-09-24T17:04:14;13.60;99.90
54264;DHT22;40178;53.042;6.406;2022-09-24T17:06:40;13.50;99.90
54264;DHT22;40178;53.042;6.406;2022-09-24T17:09:09;13.40;99.90
54264;DHT22;40178;53.042;6.406;2022-09-24T17:11:54;13.50;99.90
54264;DHT22;40178;53.042;6.406;2022-09-24T17:14:19;13.40;99.90
54264;DHT22;40178;53.042;6.406;2022-09-24T17:16:45;13.40;99.90
54264;DHT22;40178;53.042;6.406;2022-09-24T17:19:11;13.30;99.90
54264;DHT22;40178;53.042;6.406;2022-09-24T17:21:38;13.30;99.90
54264;DHT22;40178;53.042;6.406;2022-09-24T17:24:05;13.20;99.90
54264;DHT22;40178;53.042;6.406;2022-09-24T17:26:30;13.10;99.90
54264;DHT22;40178;53.042;6.406;2022-09-24T17:28:56;13.10;99.90
54264;DHT22;40178;53.042;6.406;2022-09-24T17:31:23;13.00;99.90
54264;DHT22;40178;53.042;6.406;2022-09-24T17:34:03;13.00;99.90
54264;DHT22;40178;53.042;6.406;2022-09-24T17:36:31;12.90;99.90
54264;DHT22;40178;53.042;6.406;2022-09-24T17:38:57;12.80;99.90
54264;DHT22;40178;53.042;6.406;2022-09-24T17:41:23;12.80;99.90
54264;DHT22;40178;53.042;6.406;2022-09-24T17:43:50;12.70;99.90
54264;DHT22;40178;53.042;6.406;2022-09-24T17:46:18;12.60;99.90
54264;DHT22;40178;53.042;6.406;2022-09-24T17:48:48;12.60;99.90
54264;DHT22;40178;53.042;6.406;2022-09-24T17:51:28;12.60;99.90